Time;durP1;ratioP1;P1;durP2;ratioP2;P2;SDS_P1;SDS_P2;PMS_P1;PMS_P2;Temp;Humidity;BMP_temperature;BMP_pressure;BME280_temperature;BME280_humidity;BME280_pressure;Samples;Min_cycle;Max_cycle;Signal;HPM_P1;HPM_P2
2023/02/07 00:02:19;;;;;;;13.50;8.90;;;;;;;;;;4350102;32;318195;-88
2023/02/07 00:04:45;;;;;;;23.90;11.83;;;;;;;;;;4359287;32;316447;-88
2023/02/07 00:07:12;;;;;;;19.63;11.70;;;;;;;;;;4349757;32;317899;-88
2023/02/07 00:09:40;;;;;;;18.33;8.70;;;;;;;;;;4358547;32;317693;-88
2023/02/07 00:12:08;;;;;;;12.07;8.33;;;;;;;;;;4359347;32;316855;-88
2023/02/07 00:14:34;;;;;;;10.87;7.27;;;;;;;;;;4349781;32;316870;-88
2023/02/07 00:17:01;;;;;;;15.03;9.37;;;;;;;;;;4358045;32;317425;-88
2023/02/07 00:19:28;;;;;;;42.43;25.13;;;;;;;;;;4348308;32;317402;-88
2023/02/07 00:21:55;;;;;;;23.50;14.40;;;;;;;;;;4357767;32;339003;-88
2023/02/07 00:24:22;;;;;;;39.03;24.10;;;;;;;;;;4351032;32;317634;-88
2023/02/07 00:26:51;;;;;;;47.37;27.23;;;;;;;;;;4359420;32;317869;-88
2023/02/07 00:29:18;;;;;;;26.23;15.37;;;;;;;;;;4348852;32;318378;-88
2023/02/07 00:31:45;;;;;;;30.07;16.67;;;;;;;;;;4358385;32;318088;-89
2023/02/07 00:34:13;;;;;;;76.20;34.07;;;;;;;;;;4349334;32;318318;-89
2023/02/07 00:36:42;;;;;;;32.00;18.17;;;;;;;;;;4359113;32;318653;-88
2023/02/07 00:39:12;;;;;;;27.87;14.50;;;;;;;;;;4358635;32;317602;-89
2023/02/07 00:41:40;;;;;;;32.13;19.07;;;;;;;;;;4345379;32;416902;-88
2023/02/07 00:44:08;;;;;;;22.30;13.37;;;;;;;;;;4359006;32;318169;-88
2023/02/07 00:46:35;;;;;;;27.63;15.97;;;;;;;;;;4344757;32;411170;-89
2023/02/07 00:49:03;;;;;;;13.73;9.47;;;;;;;;;;4358498;32;317690;-88
2023/02/07 00:51:30;;;;;;;17.17;11.33;;;;;;;;;;4349054;32;317503;-88
2023/02/07 00:53:57;;;;;;;29.17;14.90;;;;;;;;;;4359192;32;318456;-87
2023/02/07 00:56:26;;;;;;;28.57;15.73;;;;;;;;;;4347497;32;321228;-89
2023/02/07 00:58:52;;;;;;;16.77;10.40;;;;;;;;;;4359007;32;318290;-89
2023/02/07 01:01:23;;;;;;;15.37;8.53;;;;;;;;;;4347694;32;317674;-88
2023/02/07 01:03:50;;;;;;;16.43;7.77;;;;;;;;;;4359182;32;316691;-88
2023/02/07 01:06:17;;;;;;;12.93;8.37;;;;;;;;;;4349153;32;317055;-89
2023/02/07 01:08:44;;;;;;;12.27;7.03;;;;;;;;;;4359174;32;316208;-89
2023/02/07 01:11:15;;;;;;;10.33;7.70;;;;;;;;;;4349338;32;316442;-88
2023/02/07 01:13:43;;;;;;;12.07;8.70;;;;;;;;;;4359358;32;317186;-88
2023/02/07 01:16:18;;;;;;;11.70;8.10;;;;;;;;;;4358052;32;316642;-89
2023/02/07 01:18:46;;;;;;;8.93;5.70;;;;;;;;;;4346134;32;420066;-88
2023/02/07 01:21:18;;;;;;;16.00;9.53;;;;;;;;;;4348289;32;316252;-88
2023/02/07 01:23:45;;;;;;;8.57;6.33;;;;;;;;;;4357675;32;316777;-88
2023/02/07 01:26:12;;;;;;;9.73;6.40;;;;;;;;;;4348511;32;315785;-88
2023/02/07 01:28:39;;;;;;;8.13;5.90;;;;;;;;;;4358817;32;315677;-89
2023/02/07 01:31:08;;;;;;;6.83;5.37;;;;;;;;;;4357385;32;316435;-88
2023/02/07 01:33:35;;;;;;;12.27;7.43;;;;;;;;;;4349108;32;315607;-88
2023/02/07 01:36:07;;;;;;;8.53;6.07;;;;;;;;;;4358001;32;316293;-88
2023/02/07 01:38:34;;;;;;;10.47;7.60;;;;;;;;;;4347429;32;315500;-89
2023/02/07 01:41:01;;;;;;;8.23;6.43;;;;;;;;;;4358220;32;316363;-89
2023/02/07 01:43:28;;;;;;;9.00;5.37;;;;;;;;;;4348250;32;316888;-88
2023/02/07 01:45:55;;;;;;;8.87;6.13;;;;;;;;;;4357310;32;315468;-88
2023/02/07 01:48:28;;;;;;;7.53;5.37;;;;;;;;;;4348815;32;316677;-89
2023/02/07 01:50:59;;;;;;;7.93;6.03;;;;;;;;;;4359508;32;316255;-88
2023/02/07 01:53:29;;;;;;;10.10;5.97;;;;;;;;;;4352440;32;315759;-88
2023/02/07 01:56:00;;;;;;;12.07;8.03;;;;;;;;;;4362861;32;316452;-88
2023/02/07 01:58:27;;;;;;;9.37;6.50;;;;;;;;;;4349486;32;317324;-89
2023/02/07 02:00:55;;;;;;;7.43;6.10;;;;;;;;;;4359431;32;315576;-88
2023/02/07 02:03:22;;;;;;;9.77;7.57;;;;;;;;;;4350992;32;316298;-88
2023/02/07 02:05:53;;;;;;;21.07;11.40;;;;;;;;;;4364346;32;315448;-88
2023/02/07 02:08:20;;;;;;;13.73;9.13;;;;;;;;;;4348752;32;318347;-88
2023/02/07 02:11:03;;;;;;;11.83;8.43;;;;;;;;;;4357256;32;316518;-89
2023/02/07 02:13:37;;;;;;;23.83;12.43;;;;;;;;;;4347283;32;338913;-88
2023/02/07 02:16:16;;;;;;;17.67;10.17;;;;;;;;;;4356303;32;317426;-88
2023/02/07 02:18:59;;;;;;;12.00;6.47;;;;;;;;;;4344430;32;417056;-88
2023/02/07 02:21:49;;;;;;;13.23;8.93;;;;;;;;;;4348237;32;317261;-87
2023/02/07 02:24:58;;;;;;;19.67;10.03;;;;;;;;;;4347015;32;317208;-88
2023/02/07 02:27:40;;;;;;;17.97;10.30;;;;;;;;;;4348002;32;317772;-88
2023/02/07 02:30:39;;;;;;;18.63;10.87;;;;;;;;;;4356590;32;317781;-88
2023/02/07 02:33:20;;;;;;;10.10;7.67;;;;;;;;;;4354494;32;416601;-88
2023/02/07 02:35:54;;;;;;;12.60;8.03;;;;;;;;;;4344958;32;413132;-88
2023/02/07 02:38:26;;;;;;;11.55;7.68;;;;;;;;;;4345360;32;317409;-88
2023/02/07 02:41:00;;;;;;;10.47;6.60;;;;;;;;;;4357028;32;317304;-88
2023/02/07 02:43:34;;;;;;;9.67;7.00;;;;;;;;;;4348248;32;317759;-89
2023/02/07 02:46:05;;;;;;;10.23;6.97;;;;;;;;;;4355542;32;350362;-88
2023/02/07 02:48:34;;;;;;;20.67;11.70;;;;;;;;;;4347705;32;317477;-87
2023/02/07 02:51:01;;;;;;;13.87;8.53;;;;;;;;;;4357245;32;318505;-88
2023/02/07 02:53:28;;;;;;;10.57;7.27;;;;;;;;;;4347009;32;316894;-89
2023/02/07 02:56:29;;;;;;;7.87;6.07;;;;;;;;;;4356421;32;350884;-89
2023/02/07 02:59:16;;;;;;;7.57;6.33;;;;;;;;;;4344777;32;415661;-88
2023/02/07 03:01:51;;;;;;;10.03;6.13;;;;;;;;;;4345045;32;416189;-88
2023/02/07 03:04:32;;;;;;;8.23;5.87;;;;;;;;;;4346775;32;316767;-88
2023/02/07 03:07:18;;;;;;;13.47;8.87;;;;;;;;;;4357481;32;316519;-88
2023/02/07 03:09:57;;;;;;;14.73;9.50;;;;;;;;;;4345053;32;416022;-89
2023/02/07 03:12:28;;;;;;;13.60;7.77;;;;;;;;;;4347608;32;317487;-88
2023/02/07 03:15:04;;;;;;;11.87;7.47;;;;;;;;;;4360234;32;316710;-88
2023/02/07 03:17:37;;;;;;;22.20;11.23;;;;;;;;;;4351004;32;316685;-88
2023/02/07 03:20:12;;;;;;;12.60;8.63;;;;;;;;;;4360275;32;318129;-89
2023/02/07 03:22:41;;;;;;;12.23;7.90;;;;;;;;;;4332455;32;416993;-88
2023/02/07 03:25:09;;;;;;;16.03;8.23;;;;;;;;;;4344082;32;316601;-88
2023/02/07 03:27:38;;;;;;;15.33;9.00;;;;;;;;;;4346876;32;416828;-89
2023/02/07 03:30:09;;;;;;;19.93;9.80;;;;;;;;;;4359018;32;317283;-87
2023/02/07 03:32:39;;;;;;;21.27;11.03;;;;;;;;;;4347307;32;415836;-89
2023/02/07 03:35:12;;;;;;;15.90;9.57;;;;;;;;;;4360165;32;317549;-88
2023/02/07 03:37:43;;;;;;;50.37;25.87;;;;;;;;;;4347929;32;416063;-89
2023/02/07 03:40:12;;;;;;;15.90;11.27;;;;;;;;;;4359316;32;318249;-87
2023/02/07 03:42:42;;;;;;;14.83;9.13;;;;;;;;;;4346474;32;417471;-88
2023/02/07 03:45:13;;;;;;;10.27;7.93;;;;;;;;;;4362052;32;317498;-89
2023/02/07 03:47:40;;;;;;;9.97;6.40;;;;;;;;;;4349081;32;417958;-89
2023/02/07 03:50:09;;;;;;;11.00;7.33;;;;;;;;;;4362457;32;315688;-87
2023/02/07 03:52:35;;;;;;;15.70;11.73;;;;;;;;;;4347509;32;418814;-88
2023/02/07 03:55:03;;;;;;;19.37;11.27;;;;;;;;;;4359915;32;318160;-89
2023/02/07 03:57:29;;;;;;;20.10;12.43;;;;;;;;;;4348905;32;318310;-89
2023/02/07 03:59:56;;;;;;;12.30;7.23;;;;;;;;;;4358457;32;317749;-88
2023/02/07 04:02:26;;;;;;;9.67;7.30;;;;;;;;;;4349945;32;318248;-89
2023/02/07 04:04:52;;;;;;;13.90;8.17;;;;;;;;;;4358579;32;315590;-88
2023/02/07 04:07:21;;;;;;;11.93;8.10;;;;;;;;;;4348091;32;338077;-88
2023/02/07 04:09:47;;;;;;;12.80;7.70;;;;;;;;;;4358290;32;317398;-88
2023/02/07 04:12:14;;;;;;;9.50;7.00;;;;;;;;;;4346225;32;357683;-88
2023/02/07 04:14:41;;;;;;;14.67;8.90;;;;;;;;;;4360359;32;316182;-88
2023/02/07 04:17:08;;;;;;;7.77;6.00;;;;;;;;;;4359942;32;317439;-88
2023/02/07 04:19:35;;;;;;;8.90;6.67;;;;;;;;;;4351314;32;316396;-88
2023/02/07 04:22:01;;;;;;;13.93;7.37;;;;;;;;;;4360048;32;315535;-89
2023/02/07 04:24:31;;;;;;;12.90;8.77;;;;;;;;;;4348492;32;352039;-89
2023/02/07 04:26:58;;;;;;;31.60;16.03;;;;;;;;;;4362915;32;316827;-89
2023/02/07 04:29:24;;;;;;;34.23;18.37;;;;;;;;;;4351254;32;318565;-88
2023/02/07 04:31:51;;;;;;;24.17;13.90;;;;;;;;;;4359174;32;318272;-89
2023/02/07 04:34:18;;;;;;;16.33;10.30;;;;;;;;;;4349519;32;335153;-88
2023/02/07 04:36:46;;;;;;;20.77;12.50;;;;;;;;;;4361335;32;318370;-89
2023/02/07 04:39:13;;;;;;;29.93;15.63;;;;;;;;;;4352919;32;318122;-88
2023/02/07 04:41:41;;;;;;;22.13;12.20;;;;;;;;;;4360978;32;318387;-88
2023/02/07 04:44:08;;;;;;;14.77;9.07;;;;;;;;;;4356969;32;318879;-88
2023/02/07 04:46:35;;;;;;;16.27;10.13;;;;;;;;;;4349159;32;317327;-88
2023/02/07 04:49:03;;;;;;;24.33;13.07;;;;;;;;;;4358966;32;318835;-88
2023/02/07 04:51:29;;;;;;;19.73;12.20;;;;;;;;;;4348025;32;318393;-89
2023/02/07 04:53:56;;;;;;;22.23;13.03;;;;;;;;;;4357769;32;318497;-88
2023/02/07 04:56:23;;;;;;;19.80;9.40;;;;;;;;;;4348935;32;318494;-88
2023/02/07 04:58:51;;;;;;;11.53;8.20;;;;;;;;;;4359111;32;316927;-88
2023/02/07 05:01:18;;;;;;;17.00;8.33;;;;;;;;;;4347348;32;328325;-88
2023/02/07 05:03:45;;;;;;;14.27;7.73;;;;;;;;;;4358438;32;338566;-88
2023/02/07 05:06:12;;;;;;;17.07;10.33;;;;;;;;;;4348916;32;317416;-89
2023/02/07 05:08:39;;;;;;;18.50;10.23;;;;;;;;;;4358877;32;318569;-88
2023/02/07 05:11:06;;;;;;;23.97;10.47;;;;;;;;;;4357994;32;317664;-88
2023/02/07 05:13:33;;;;;;;13.97;9.97;;;;;;;;;;4347657;32;358280;-88
2023/02/07 05:16:03;;;;;;;16.23;8.90;;;;;;;;;;4358632;32;317264;-88
2023/02/07 05:18:30;;;;;;;16.98;10.73;;;;;;;;;;4348777;32;316615;-88
2023/02/07 05:20:58;;;;;;;25.93;12.33;;;;;;;;;;4358634;32;317850;-89
2023/02/07 05:23:24;;;;;;;20.63;11.50;;;;;;;;;;4347799;32;318609;-88
2023/02/07 05:25:51;;;;;;;16.73;10.33;;;;;;;;;;4358098;32;335835;-88
2023/02/07 05:28:18;;;;;;;16.13;10.37;;;;;;;;;;4348565;32;318332;-87
2023/02/07 05:30:45;;;;;;;19.93;11.87;;;;;;;;;;4358909;32;318315;-88
2023/02/07 05:33:12;;;;;;;22.27;13.00;;;;;;;;;;4347604;32;317587;-89
2023/02/07 05:38:21;;;;;;;22.87;12.30;;;;;;;;;;4348690;32;336020;-89
2023/02/07 05:40:49;;;;;;;17.50;10.73;;;;;;;;;;4359213;32;318370;-89
2023/02/07 05:43:16;;;;;;;18.37;12.63;;;;;;;;;;4348057;32;318498;-88
2023/02/07 05:45:44;;;;;;;16.13;10.57;;;;;;;;;;4356369;32;317665;-89
2023/02/07 05:48:12;;;;;;;24.93;16.03;;;;;;;;;;4348130;32;317555;-89
2023/02/07 05:50:40;;;;;;;50.83;23.63;;;;;;;;;;4358871;32;318447;-90
2023/02/07 05:53:07;;;;;;;30.27;15.30;;;;;;;;;;4357798;32;317552;-90
2023/02/07 05:55:34;;;;;;;33.43;17.63;;;;;;;;;;4349488;32;317653;-89
2023/02/07 05:58:01;;;;;;;19.53;11.10;;;;;;;;;;4359550;32;317845;-89
2023/02/07 06:00:28;;;;;;;33.30;19.27;;;;;;;;;;4349020;32;318198;-88
2023/02/07 06:02:55;;;;;;;34.27;19.33;;;;;;;;;;4358265;32;318291;-89
2023/02/07 06:05:23;;;;;;;35.13;18.13;;;;;;;;;;4348463;32;317674;-88
2023/02/07 06:07:51;;;;;;;18.43;11.50;;;;;;;;;;4357469;32;318487;-88
2023/02/07 06:10:18;;;;;;;18.70;9.90;;;;;;;;;;4345938;32;346861;-88
2023/02/07 06:12:44;;;;;;;17.70;8.70;;;;;;;;;;4355965;32;316513;-88
2023/02/07 06:15:11;;;;;;;14.50;8.13;;;;;;;;;;4347494;32;319206;-84
2023/02/07 06:17:38;;;;;;;18.67;10.57;;;;;;;;;;4356910;32;316450;-88
2023/02/07 06:20:06;;;;;;;14.37;8.63;;;;;;;;;;4356923;32;318483;-87
2023/02/07 06:22:34;;;;;;;12.37;8.37;;;;;;;;;;4346136;32;317954;-88
2023/02/07 06:25:01;;;;;;;14.63;8.83;;;;;;;;;;4357252;32;316892;-88
2023/02/07 06:27:28;;;;;;;21.03;10.13;;;;;;;;;;4346272;32;317279;-87
2023/02/07 06:29:54;;;;;;;15.33;10.77;;;;;;;;;;4356698;32;318525;-88
2023/02/07 06:32:21;;;;;;;16.30;10.67;;;;;;;;;;4347444;32;317579;-88
2023/02/07 06:34:48;;;;;;;40.47;21.83;;;;;;;;;;4356707;32;317694;-89
2023/02/07 06:37:15;;;;;;;51.13;24.57;;;;;;;;;;4346226;32;317674;-88
2023/02/07 06:39:43;;;;;;;43.93;22.63;;;;;;;;;;4356372;32;317374;-88
2023/02/07 06:42:10;;;;;;;19.40;11.27;;;;;;;;;;4356702;32;318532;-88
2023/02/07 06:44:37;;;;;;;133.33;72.97;;;;;;;;;;4344409;32;417598;-88
2023/02/07 06:47:04;;;;;;;39.10;23.07;;;;;;;;;;4357558;32;319646;-88
2023/02/07 06:49:31;;;;;;;31.03;17.73;;;;;;;;;;4351243;32;317449;-88
2023/02/07 06:51:58;;;;;;;165.57;78.83;;;;;;;;;;4359961;32;318443;-88
2023/02/07 06:54:25;;;;;;;32.07;17.27;;;;;;;;;;4351921;32;319414;-87
2023/02/07 06:57:08;;;;;;;26.57;16.27;;;;;;;;;;4365609;32;317436;-89
2023/02/07 06:59:35;;;;;;;19.87;11.37;;;;;;;;;;4351721;32;317772;-88
2023/02/07 07:02:02;;;;;;;16.30;11.63;;;;;;;;;;4361608;32;350537;-87
2023/02/07 07:07:10;;;;;;;20.27;12.43;;;;;;;;;;4361194;32;317455;-85
2023/02/07 07:09:37;;;;;;;14.70;10.20;;;;;;;;;;4348029;32;416130;-85
2023/02/07 07:12:04;;;;;;;26.60;16.40;;;;;;;;;;4358784;32;318791;-85
2023/02/07 07:14:32;;;;;;;31.80;19.90;;;;;;;;;;4350018;32;318508;-86
2023/02/07 07:16:59;;;;;;;37.13;20.70;;;;;;;;;;4359033;32;318462;-86
2023/02/07 07:19:26;;;;;;;23.20;14.97;;;;;;;;;;4349926;32;318558;-87
2023/02/07 07:21:54;;;;;;;39.17;21.80;;;;;;;;;;4360160;32;318482;-88
2023/02/07 07:24:21;;;;;;;31.23;18.97;;;;;;;;;;4348752;32;330023;-87
2023/02/07 07:26:48;;;;;;;44.17;23.80;;;;;;;;;;4358527;32;317706;-87
2023/02/07 07:29:14;;;;;;;28.87;14.67;;;;;;;;;;4345396;32;317693;-87
2023/02/07 07:31:43;;;;;;;61.43;29.10;;;;;;;;;;4360212;32;318255;-87
2023/02/07 07:34:10;;;;;;;55.67;24.30;;;;;;;;;;4358898;32;318343;-87
2023/02/07 07:36:36;;;;;;;130.50;54.27;;;;;;;;;;4345920;32;416841;-87
2023/02/07 07:39:07;;;;;;;63.20;28.43;;;;;;;;;;4359935;32;318909;-87
2023/02/07 07:41:34;;;;;;;100.57;45.87;;;;;;;;;;4350020;32;318434;-87
2023/02/07 07:44:01;;;;;;;69.47;33.90;;;;;;;;;;4359822;32;318605;-86
2023/02/07 07:46:28;;;;;;;45.47;20.10;;;;;;;;;;4349214;32;317560;-87
2023/02/07 07:48:56;;;;;;;107.20;45.83;;;;;;;;;;4358900;32;318328;-87
2023/02/07 07:51:23;;;;;;;45.93;21.30;;;;;;;;;;4349175;32;319356;-87
2023/02/07 07:53:50;;;;;;;67.67;29.33;;;;;;;;;;4359460;32;318293;-87
2023/02/07 07:56:17;;;;;;;57.83;27.07;;;;;;;;;;4348090;32;318451;-86
2023/02/07 07:58:44;;;;;;;66.33;29.70;;;;;;;;;;4357532;32;318338;-87
2023/02/07 08:01:10;;;;;;;44.13;24.23;;;;;;;;;;4360046;32;317409;-87
2023/02/07 08:03:37;;;;;;;41.53;24.50;;;;;;;;;;4346015;32;417497;-87
2023/02/07 08:06:06;;;;;;;63.17;36.33;;;;;;;;;;4359256;32;317663;-86
2023/02/07 08:08:35;;;;;;;52.40;26.63;;;;;;;;;;4349654;32;318635;-86
2023/02/07 08:11:04;;;;;;;43.60;24.07;;;;;;;;;;4358649;32;318422;-87
2023/02/07 08:13:33;;;;;;;15.60;9.80;;;;;;;;;;4349794;32;318276;-87
2023/02/07 08:16:00;;;;;;;18.47;14.10;;;;;;;;;;4358201;32;317642;-87
2023/02/07 08:18:27;;;;;;;32.03;17.80;;;;;;;;;;4347548;32;317663;-86
2023/02/07 08:20:54;;;;;;;21.57;11.93;;;;;;;;;;4358887;32;317829;-87
2023/02/07 08:23:23;;;;;;;11.50;8.93;;;;;;;;;;4348653;32;318243;-86
2023/02/07 08:25:49;;;;;;;24.97;13.70;;;;;;;;;;4358853;32;316264;-86
2023/02/07 08:28:17;;;;;;;21.67;11.90;;;;;;;;;;4348508;32;317897;-86
2023/02/07 08:30:46;;;;;;;26.63;12.37;;;;;;;;;;4356922;32;318675;-85
2023/02/07 08:33:13;;;;;;;20.73;9.90;;;;;;;;;;4347124;32;318130;-86
2023/02/07 08:35:40;;;;;;;19.47;14.17;;;;;;;;;;4357037;32;317277;-85
2023/02/07 08:38:07;;;;;;;10.10;7.33;;;;;;;;;;4358405;32;318796;-86
2023/02/07 08:40:36;;;;;;;15.00;8.83;;;;;;;;;;4347990;32;317220;-87
2023/02/07 08:43:05;;;;;;;14.93;10.10;;;;;;;;;;4357404;32;317497;-87
2023/02/07 08:45:33;;;;;;;24.17;14.57;;;;;;;;;;4347665;32;318178;-86
2023/02/07 08:48:00;;;;;;;18.07;10.37;;;;;;;;;;4355996;32;317570;-86
2023/02/07 08:50:26;;;;;;;25.70;15.27;;;;;;;;;;4347081;32;317753;-85
2023/02/07 08:52:53;;;;;;;21.90;14.33;;;;;;;;;;4356774;32;318374;-84
2023/02/07 08:55:20;;;;;;;21.10;12.50;;;;;;;;;;4345810;32;317702;-86
2023/02/07 08:57:48;;;;;;;12.67;7.90;;;;;;;;;;4355930;32;318385;-88
2023/02/07 09:00:16;;;;;;;11.90;9.23;;;;;;;;;;4346489;32;316381;-84
2023/02/07 09:02:43;;;;;;;13.60;8.17;;;;;;;;;;4355713;32;317444;-86
2023/02/07 09:05:13;;;;;;;9.67;7.70;;;;;;;;;;4355850;32;317320;-85
2023/02/07 09:07:40;;;;;;;14.07;8.77;;;;;;;;;;4342025;32;414018;-84
2023/02/07 09:10:09;;;;;;;28.50;15.00;;;;;;;;;;4358402;32;333692;-84
2023/02/07 09:12:36;;;;;;;18.87;10.50;;;;;;;;;;4342005;32;418165;-84
2023/02/07 09:15:06;;;;;;;30.47;13.43;;;;;;;;;;4356231;32;317384;-84
2023/02/07 09:17:33;;;;;;;13.97;8.23;;;;;;;;;;4345104;32;317485;-84
2023/02/07 09:20:00;;;;;;;59.40;24.53;;;;;;;;;;4355704;32;317333;-84
2023/02/07 09:22:27;;;;;;;35.30;17.40;;;;;;;;;;4347148;32;318308;-85
2023/02/07 09:24:53;;;;;;;20.03;14.60;;;;;;;;;;4356766;32;317478;-86
2023/02/07 09:27:20;;;;;;;12.10;8.13;;;;;;;;;;4347299;32;317661;-85
2023/02/07 09:29:47;;;;;;;22.80;18.03;;;;;;;;;;4356978;32;316501;-85
2023/02/07 09:32:15;;;;;;;18.37;13.63;;;;;;;;;;4345501;32;318210;-84
2023/02/07 09:34:42;;;;;;;14.83;9.63;;;;;;;;;;4357287;32;318466;-86
2023/02/07 09:37:09;;;;;;;13.00;6.83;;;;;;;;;;4355990;32;316752;-85
2023/02/07 09:39:37;;;;;;;33.27;17.57;;;;;;;;;;4344386;32;419307;-85
2023/02/07 09:42:20;;;;;;;14.87;10.27;;;;;;;;;;4358576;32;318389;-87
2023/02/07 09:44:55;;;;;;;20.67;12.07;;;;;;;;;;4343960;32;406055;-86
2023/02/07 09:47:25;;;;;;;18.23;7.70;;;;;;;;;;4348527;32;318296;-88
2023/02/07 09:49:55;;;;;;;20.40;11.23;;;;;;;;;;4356017;32;317451;-86
2023/02/07 09:52:26;;;;;;;23.60;12.07;;;;;;;;;;4347718;32;318332;-87
2023/02/07 09:54:55;;;;;;;22.97;13.63;;;;;;;;;;4356714;32;348843;-85
2023/02/07 09:57:27;;;;;;;11.90;7.23;;;;;;;;;;4348046;32;318323;-86
2023/02/07 09:59:58;;;;;;;14.43;9.60;;;;;;;;;;4359683;32;316489;-85
2023/02/07 10:02:32;;;;;;;20.23;10.43;;;;;;;;;;4349795;32;351764;-87
2023/02/07 10:05:03;;;;;;;47.67;19.77;;;;;;;;;;4363982;32;317581;-87
2023/02/07 10:07:31;;;;;;;31.37;16.70;;;;;;;;;;4353286;32;317298;-86
2023/02/07 10:09:58;;;;;;;15.07;9.17;;;;;;;;;;4363176;32;317364;-86
2023/02/07 10:12:47;;;;;;;11.73;9.03;;;;;;;;;;4349318;32;316482;-87
2023/02/07 10:15:34;;;;;;;12.97;8.23;;;;;;;;;;4347124;32;317244;-87
2023/02/07 10:18:28;;;;;;;15.73;10.33;;;;;;;;;;4356244;32;316608;-86
2023/02/07 10:21:04;;;;;;;18.33;10.17;;;;;;;;;;4344802;32;418558;-87
2023/02/07 10:23:41;;;;;;;21.23;11.53;;;;;;;;;;4347221;32;318004;-87
2023/02/07 10:26:17;;;;;;;24.70;15.50;;;;;;;;;;4355789;32;318653;-87
2023/02/07 10:29:04;;;;;;;19.23;9.93;;;;;;;;;;4343843;32;417966;-87
2023/02/07 10:31:36;;;;;;;10.80;7.47;;;;;;;;;;4346884;32;316473;-87
2023/02/07 10:34:12;;;;;;;12.50;8.63;;;;;;;;;;4355769;32;316594;-85
2023/02/07 10:36:42;;;;;;;16.93;13.13;;;;;;;;;;4343819;32;416994;-86
2023/02/07 10:39:17;;;;;;;16.67;9.47;;;;;;;;;;4358537;32;317562;-85
2023/02/07 10:41:44;;;;;;;13.50;9.37;;;;;;;;;;4343758;32;417286;-86
2023/02/07 10:44:13;;;;;;;17.10;10.47;;;;;;;;;;4352745;32;317347;-88
2023/02/07 10:46:42;;;;;;;11.77;8.80;;;;;;;;;;4356825;32;317603;-85
2023/02/07 10:49:20;;;;;;;9.93;7.73;;;;;;;;;;4356458;32;316321;-85
2023/02/07 10:51:49;;;;;;;13.13;8.10;;;;;;;;;;4344474;32;414961;-87
2023/02/07 10:54:19;;;;;;;89.60;43.93;;;;;;;;;;4346754;32;316597;-87
2023/02/07 10:56:49;;;;;;;9.30;6.83;;;;;;;;;;4356132;32;317396;-87
2023/02/07 10:59:44;;;;;;;40.03;28.27;;;;;;;;;;4347043;32;315702;-87
2023/02/07 11:02:43;;;;;;;14.83;10.17;;;;;;;;;;4355637;32;320154;-88
2023/02/07 11:05:37;;;;;;;12.73;7.40;;;;;;;;;;4319598;32;418004;-88
2023/02/07 11:08:07;;;;;;;12.70;8.80;;;;;;;;;;4344730;32;417324;-87
2023/02/07 11:10:36;;;;;;;14.23;8.60;;;;;;;;;;4346008;32;334185;-87
2023/02/07 11:13:12;;;;;;;21.67;13.97;;;;;;;;;;4355838;32;317556;-87
2023/02/07 11:15:47;;;;;;;45.17;20.93;;;;;;;;;;4343795;32;420744;-86
2023/02/07 11:18:28;;;;;;;15.00;9.37;;;;;;;;;;4347138;32;318444;-87
2023/02/07 11:20:57;;;;;;;32.30;19.20;;;;;;;;;;4357548;32;316515;-87
2023/02/07 11:23:25;;;;;;;10.43;6.63;;;;;;;;;;4345898;32;339221;-89
2023/02/07 11:25:54;;;;;;;19.43;11.60;;;;;;;;;;4362039;32;316281;-90
2023/02/07 11:28:24;;;;;;;20.63;10.87;;;;;;;;;;4350935;32;317455;-88
2023/02/07 11:30:56;;;;;;;13.23;8.40;;;;;;;;;;4363394;32;317404;-88
2023/02/07 11:33:27;;;;;;;10.20;7.13;;;;;;;;;;4350898;32;316551;-88
2023/02/07 11:36:05;;;;;;;31.00;19.90;;;;;;;;;;4362447;32;316467;-88
2023/02/07 11:38:38;;;;;;;38.77;18.10;;;;;;;;;;4354903;32;318494;-88
2023/02/07 11:41:06;;;;;;;39.00;21.63;;;;;;;;;;4360638;32;318270;-88
2023/02/07 11:43:35;;;;;;;88.87;47.03;;;;;;;;;;4350360;32;317566;-89
2023/02/07 11:46:06;;;;;;;60.83;32.10;;;;;;;;;;4361696;32;318335;-87
2023/02/07 11:48:37;;;;;;;60.93;33.13;;;;;;;;;;4350883;32;318646;-88
2023/02/07 11:51:09;;;;;;;28.03;17.07;;;;;;;;;;4361177;32;317603;-87
2023/02/07 11:53:40;;;;;;;29.30;17.40;;;;;;;;;;4345482;32;420853;-88
2023/02/07 11:56:07;;;;;;;40.77;20.73;;;;;;;;;;4358591;32;318336;-88
2023/02/07 11:58:37;;;;;;;28.80;14.10;;;;;;;;;;4349876;32;318422;-88
2023/02/07 12:01:06;;;;;;;38.73;21.80;;;;;;;;;;4359857;32;318492;-87
2023/02/07 12:03:40;;;;;;;35.63;19.40;;;;;;;;;;4349857;32;318548;-88
2023/02/07 12:06:15;;;;;;;37.07;21.43;;;;;;;;;;4359629;32;318077;-89
2023/02/07 12:08:44;;;;;;;25.23;14.47;;;;;;;;;;4346159;32;420902;-88
2023/02/07 12:11:17;;;;;;;16.47;10.40;;;;;;;;;;4360167;32;318237;-88
2023/02/07 12:13:47;;;;;;;21.10;12.07;;;;;;;;;;4348358;32;416767;-88
2023/02/07 12:16:19;;;;;;;23.73;10.50;;;;;;;;;;4349223;32;318404;-87
2023/02/07 12:18:51;;;;;;;13.20;9.70;;;;;;;;;;4358686;32;317814;-87
2023/02/07 12:21:24;;;;;;;18.37;10.90;;;;;;;;;;4348361;32;335878;-86
2023/02/07 12:23:58;;;;;;;15.93;10.77;;;;;;;;;;4357164;32;317494;-86
2023/02/07 12:26:29;;;;;;;36.70;19.70;;;;;;;;;;4347067;32;348674;-86
2023/02/07 12:29:09;;;;;;;18.70;11.70;;;;;;;;;;4358072;32;318699;-87
2023/02/07 12:31:43;;;;;;;23.53;12.67;;;;;;;;;;4348841;32;318207;-86
2023/02/07 12:34:17;;;;;;;25.07;15.00;;;;;;;;;;4358140;32;317649;-87
2023/02/07 12:36:50;;;;;;;35.63;19.07;;;;;;;;;;4346280;32;416567;-87
2023/02/07 12:39:23;;;;;;;19.20;12.47;;;;;;;;;;4349431;32;318630;-88
2023/02/07 12:41:55;;;;;;;23.20;13.67;;;;;;;;;;4358340;32;317541;-87
2023/02/07 12:44:26;;;;;;;16.50;10.23;;;;;;;;;;4348143;32;318755;-87
2023/02/07 12:47:01;;;;;;;19.67;10.90;;;;;;;;;;4358209;32;318333;-88
2023/02/07 12:49:50;;;;;;;21.17;14.20;;;;;;;;;;4348608;32;318498;-87
2023/02/07 12:52:35;;;;;;;19.47;11.03;;;;;;;;;;4348080;32;318569;-88
2023/02/07 12:55:17;;;;;;;14.03;10.03;;;;;;;;;;4359527;32;318457;-88
2023/02/07 12:57:49;;;;;;;19.50;12.13;;;;;;;;;;4346872;32;418263;-88
2023/02/07 13:00:21;;;;;;;19.83;13.07;;;;;;;;;;4346527;32;391627;-87
2023/02/07 13:02:59;;;;;;;14.10;8.83;;;;;;;;;;4358231;32;318595;-88
2023/02/07 13:05:49;;;;;;;19.03;11.43;;;;;;;;;;4347816;32;318091;-90
2023/02/07 13:08:26;;;;;;;24.40;13.00;;;;;;;;;;4347574;32;317814;-89
2023/02/07 13:11:31;;;;;;;22.37;14.67;;;;;;;;;;4360773;32;317982;-90
2023/02/07 13:14:20;;;;;;;29.70;16.93;;;;;;;;;;4346844;32;418582;-90
2023/02/07 13:16:53;;;;;;;24.13;14.37;;;;;;;;;;4344289;32;417136;-89
2023/02/07 13:19:28;;;;;;;28.47;15.33;;;;;;;;;;4347862;32;317855;-89
2023/02/07 13:21:59;;;;;;;25.97;16.73;;;;;;;;;;4357699;32;317899;-90
2023/02/07 13:24:30;;;;;;;30.63;15.07;;;;;;;;;;4347737;32;318360;-90
2023/02/07 13:27:02;;;;;;;17.40;10.53;;;;;;;;;;4359997;32;318180;-89
2023/02/07 13:29:32;;;;;;;18.97;11.87;;;;;;;;;;4349962;32;321963;-91
2023/02/07 13:32:03;;;;;;;17.50;11.30;;;;;;;;;;4359261;32;317872;-89
2023/02/07 13:34:33;;;;;;;42.80;20.53;;;;;;;;;;4348264;32;317719;-89
2023/02/07 13:37:01;;;;;;;31.40;16.97;;;;;;;;;;4355782;32;317834;-89
2023/02/07 13:39:42;;;;;;;47.93;24.07;;;;;;;;;;4348008;32;317742;-89
2023/02/07 13:42:17;;;;;;;33.03;17.93;;;;;;;;;;4356130;32;352170;-89
2023/02/07 13:44:54;;;;;;;24.47;12.47;;;;;;;;;;4344563;32;420347;-89
2023/02/07 13:47:42;;;;;;;20.53;11.57;;;;;;;;;;4348050;32;317731;-89
2023/02/07 13:50:19;;;;;;;36.13;18.93;;;;;;;;;;4359082;32;318430;-90
2023/02/07 13:52:54;;;;;;;28.87;15.53;;;;;;;;;;4344968;32;418568;-90
2023/02/07 13:55:30;;;;;;;15.27;9.93;;;;;;;;;;4347863;32;317736;-91
2023/02/07 14:01:12;;;;;;;25.17;13.17;;;;;;;;;;4345652;32;388363;-92
2023/02/07 14:03:39;;;;;;;29.10;14.40;;;;;;;;;;4346065;32;418874;-91
2023/02/07 14:06:21;;;;;;;33.53;13.97;;;;;;;;;;4359104;32;317619;-91
2023/02/07 14:09:00;;;;;;;23.87;13.03;;;;;;;;;;4345647;32;418494;-89
2023/02/07 14:11:35;;;;;;;26.63;12.80;;;;;;;;;;4348393;32;318541;-90
2023/02/07 14:14:16;;;;;;;24.10;14.03;;;;;;;;;;4358225;32;317807;-91
2023/02/07 14:16:47;;;;;;;24.93;12.67;;;;;;;;;;4345645;32;416156;-91
2023/02/07 14:19:16;;;;;;;21.63;12.67;;;;;;;;;;4346137;32;398139;-90
2023/02/07 14:21:44;;;;;;;27.17;14.50;;;;;;;;;;4368497;32;317584;-89
2023/02/07 14:24:20;;;;;;;23.20;14.00;;;;;;;;;;4379120;32;20341;-91
2023/02/07 14:26:58;;;;;;;24.20;14.00;;;;;;;;;;4378605;32;20241;-90
2023/02/07 14:30:02;;;;;;;30.50;16.20;;;;;;;;;;4380120;32;20234;-90
2023/02/07 14:32:45;;;;;;;40.97;17.97;;;;;;;;;;4383286;32;20221;-92
2023/02/07 14:35:36;;;;;;;26.50;14.37;;;;;;;;;;4383604;32;20219;-89
2023/02/07 14:38:12;;;;;;;43.10;24.20;;;;;;;;;;4383348;32;20218;-88
2023/02/07 14:40:56;;;;;;;37.80;22.23;;;;;;;;;;4383141;32;20194;-90
2023/02/07 14:43:35;;;;;;;24.70;16.13;;;;;;;;;;4381663;32;20265;-88